createdAt,value
2018-07-21T00:00:23.117Z,50.79
2018-07-21T00:01:23.280Z,50.59
2018-07-21T00:02:23.439Z,50.98
2018-07-21T00:03:23.554Z,51.07
2018-07-21T00:04:23.716Z,51.07
2018-07-21T00:05:24.539Z,51.17
2018-07-21T00:07:55.825Z,51.17
2018-07-21T00:08:55.972Z,51.17
2018-07-21T00:09:56.105Z,51.17
2018-07-21T00:10:56.252Z,50.89
2018-07-21T00:11:56.381Z,50.98
2018-07-21T00:12:56.528Z,51.07
2018-07-21T00:13:56.697Z,50.98
2018-07-21T00:14:56.822Z,50.98
2018-07-21T00:15:56.965Z,51.17
2018-07-21T00:16:57.115Z,51.07
2018-07-21T00:17:57.250Z,51.07
2018-07-21T00:18:57.394Z,51.27
2018-07-21T00:19:57.554Z,51.17
2018-07-21T00:20:57.695Z,51.65
2018-07-21T00:21:57.847Z,51.75
2018-07-21T00:22:58.011Z,51.95
2018-07-21T00:23:58.144Z,51.82
2018-07-21T00:24:58.287Z,51.92
2018-07-21T00:25:58.454Z,51.95
2018-07-21T00:26:58.584Z,51.85
2018-07-21T00:27:58.724Z,51.73
2018-07-21T00:28:58.881Z,51.92
2018-07-21T00:29:59.011Z,51.75
2018-07-21T00:30:59.151Z,52.14
2018-07-21T00:31:59.313Z,51.92
2018-07-21T00:32:59.442Z,52.01
2018-07-21T00:33:59.604Z,52.01
2018-07-21T00:34:59.760Z,51.82
2018-07-21T00:35:59.905Z,51.92
2018-07-21T00:37:00.066Z,51.92
2018-07-21T00:38:00.235Z,51.73
2018-07-21T00:39:00.372Z,51.73
2018-07-21T00:40:00.509Z,51.73
2018-07-21T00:41:00.669Z,52.01
2018-07-21T00:42:00.803Z,52.21
2018-07-21T00:43:00.939Z,52.31
2018-07-21T00:44:01.110Z,51.92
2018-07-21T00:45:01.246Z,52.01
2018-07-21T00:46:01.402Z,52.59
2018-07-21T00:47:01.564Z,52.50
2018-07-21T00:48:01.698Z,52.31
2018-07-21T00:49:01.847Z,52.50
2018-07-21T00:50:01.988Z,52.40
2018-07-21T00:51:02.184Z,52.50
2018-07-21T00:52:02.322Z,52.59
2018-07-21T00:53:02.490Z,52.40
2018-07-21T00:54:02.620Z,52.69
2018-07-21T00:55:02.767Z,52.21
2018-07-21T00:56:02.925Z,52.21
2018-07-21T00:57:03.062Z,52.21
2018-07-21T00:58:03.198Z,52.69
2018-07-21T00:59:03.362Z,52.59
2018-07-21T01:00:03.496Z,52.79
2018-07-21T01:01:03.633Z,52.50
2018-07-21T01:02:03.778Z,52.50
2018-07-21T01:03:03.918Z,52.69
2018-07-21T01:04:04.059Z,52.59
2018-07-21T01:05:04.200Z,52.59
2018-07-21T01:06:04.341Z,52.21
2018-07-21T01:07:04.481Z,52.79
2018-07-21T01:08:04.623Z,52.79
2018-07-21T01:09:04.760Z,52.89
2018-07-21T01:10:04.904Z,52.89
2018-07-21T01:11:05.046Z,52.50
2018-07-21T01:12:05.178Z,52.50
2018-07-21T01:13:05.320Z,52.50
2018-07-21T01:14:05.470Z,52.89
2018-07-21T01:15:05.611Z,52.89
2018-07-21T01:16:05.754Z,52.89
2018-07-21T01:17:05.890Z,53.17
2018-07-21T01:18:06.037Z,52.98
2018-07-21T01:19:06.193Z,52.59
2018-07-21T01:20:06.348Z,52.40
2018-07-21T01:21:06.483Z,52.79
2018-07-21T01:22:06.626Z,52.89
2018-07-21T01:23:06.769Z,52.89
2018-07-21T01:24:06.916Z,53.27
2018-07-21T01:25:07.054Z,53.08
2018-07-21T01:26:07.193Z,53.27
2018-07-21T01:27:07.331Z,53.17
2018-07-21T01:28:08.015Z,53.37
2018-07-21T01:29:07.605Z,53.25
2018-07-21T01:30:07.742Z,52.67
2018-07-21T01:31:07.879Z,53.08
2018-07-21T01:32:08.024Z,53.27
2018-07-21T01:33:08.162Z,52.69
2018-07-21T01:34:08.301Z,53.17
2018-07-21T01:35:08.440Z,53.08
2018-07-21T01:36:08.586Z,53.25
2018-07-21T01:37:08.727Z,53.17
2018-07-21T01:38:08.868Z,52.69
2018-07-21T01:39:09.015Z,52.69
2018-07-21T01:40:09.166Z,52.89
2018-07-21T01:41:09.312Z,53.27
2018-07-21T01:42:09.458Z,52.98
2018-07-21T01:43:09.595Z,53.08
2018-07-21T01:44:09.736Z,53.17
2018-07-21T01:45:09.877Z,52.79
2018-07-21T01:46:10.018Z,52.89
2018-07-21T01:47:10.164Z,53.08
2018-07-21T01:48:10.304Z,52.57
2018-07-21T01:49:10.446Z,53.08
2018-07-21T01:50:10.589Z,52.79
2018-07-21T01:51:10.735Z,52.89
2018-07-21T01:52:10.871Z,52.79
2018-07-21T01:53:11.038Z,52.95
2018-07-21T01:54:11.170Z,52.79
2018-07-21T01:55:11.314Z,53.17
2018-07-21T01:56:11.462Z,53.08
2018-07-21T01:57:11.596Z,53.17
2018-07-21T01:58:11.736Z,52.98
2018-07-21T01:59:11.897Z,53.08
2018-07-21T02:00:12.038Z,53.27
2018-07-21T02:01:12.179Z,53.37
2018-07-21T02:02:12.364Z,53.17
2018-07-21T02:03:12.472Z,53.15
2018-07-21T02:04:12.615Z,53.34
2018-07-21T02:05:12.755Z,53.37
2018-07-21T02:06:12.900Z,53.56
2018-07-21T02:07:13.036Z,53.44
2018-07-21T02:08:13.186Z,53.73
2018-07-21T02:09:13.316Z,53.63
2018-07-21T02:10:13.457Z,54.02
2018-07-21T02:11:13.596Z,53.73
2018-07-21T02:12:13.732Z,54.02
2018-07-21T02:13:13.868Z,54.11
2018-07-21T02:14:14.026Z,53.73
2018-07-21T02:15:14.210Z,53.73
2018-07-21T02:16:14.354Z,53.83
2018-07-21T02:17:14.514Z,54.11
2018-07-21T02:18:14.651Z,54.50
2018-07-21T02:19:14.796Z,54.69
2018-07-21T02:20:14.950Z,54.60
2018-07-21T02:21:15.097Z,54.21
2018-07-21T02:22:15.233Z,54.50
2018-07-21T02:23:15.392Z,53.92
2018-07-21T02:24:15.523Z,53.63
2018-07-21T02:25:15.665Z,53.53
2018-07-21T02:26:15.819Z,54.11
2018-07-21T02:27:15.954Z,54.21
2018-07-21T02:28:16.092Z,54.31
2018-07-21T02:29:16.254Z,54.50
2018-07-21T02:30:16.388Z,54.11
2018-07-21T02:31:16.531Z,54.02
2018-07-21T02:32:16.708Z,54.69
2018-07-21T02:33:16.833Z,54.69
2018-07-21T02:34:16.974Z,54.60
2018-07-21T02:35:17.142Z,54.69
2018-07-21T02:36:17.271Z,54.69
2018-07-21T02:37:17.425Z,54.50
2018-07-21T02:38:17.583Z,54.21
2018-07-21T02:39:17.718Z,54.60
2018-07-21T02:40:17.855Z,54.50
2018-07-21T02:41:18.008Z,54.69
2018-07-21T02:42:18.148Z,54.69
2018-07-21T02:43:18.290Z,54.50
2018-07-21T02:44:18.498Z,54.69
2018-07-21T02:45:18.578Z,54.11
2018-07-21T02:46:18.714Z,54.60
2018-07-21T02:47:18.854Z,54.69
2018-07-21T02:48:18.997Z,54.50
2018-07-21T02:49:19.166Z,54.69
2018-07-21T02:50:19.304Z,54.50
2018-07-21T02:51:19.444Z,54.50
2018-07-21T02:52:19.590Z,54.88
2018-07-21T02:53:19.720Z,54.79
2018-07-21T02:54:19.918Z,55.27
2018-07-21T02:55:20.060Z,55.15
2018-07-21T02:56:20.203Z,55.05
2018-07-21T02:57:20.348Z,55.36
2018-07-21T02:58:20.667Z,55.46
2018-07-21T02:59:20.622Z,54.66
2018-07-21T03:00:20.765Z,55.36
2018-07-21T03:01:20.912Z,55.18
2018-07-21T03:02:21.053Z,54.96
2018-07-21T03:03:21.190Z,55.34
2018-07-21T03:04:21.329Z,55.34
2018-07-21T03:05:21.472Z,54.79
2018-07-21T03:06:21.671Z,55.44
2018-07-21T03:07:21.810Z,55.15
2018-07-21T03:08:21.957Z,54.79
2018-07-21T03:09:22.109Z,55.08
2018-07-21T03:10:22.247Z,55.27
2018-07-21T03:11:22.380Z,55.15
2018-07-21T03:12:22.521Z,55.63
2018-07-21T03:13:22.669Z,55.56
2018-07-21T03:14:22.806Z,55.34
2018-07-21T03:15:22.962Z,55.05
2018-07-21T03:16:23.095Z,54.86
2018-07-21T03:17:23.238Z,54.76
2018-07-21T03:18:23.383Z,54.57
2018-07-21T03:19:23.526Z,54.57
2018-07-21T03:20:23.665Z,55.05
2018-07-21T03:21:23.863Z,55.05
2018-07-21T03:22:24.006Z,54.76
2018-07-21T03:23:24.196Z,54.86
2018-07-21T03:24:24.275Z,55.05
2018-07-21T03:25:24.431Z,54.98
2018-07-21T03:26:24.565Z,54.86
2018-07-21T03:27:24.711Z,55.73
2018-07-21T03:28:24.849Z,55.73
2018-07-21T03:29:24.991Z,55.63
2018-07-21T03:30:25.138Z,55.82
2018-07-21T03:31:25.285Z,55.92
2018-07-21T03:32:25.421Z,55.63
2018-07-21T03:33:25.587Z,56.01
2018-07-21T03:34:25.746Z,56.49
2018-07-21T03:35:25.883Z,56.40
2018-07-21T03:36:26.031Z,56.24
2018-07-21T03:37:26.167Z,56.49
2018-07-21T03:38:26.314Z,56.40
2018-07-21T03:39:26.455Z,56.62
2018-07-21T03:40:26.640Z,56.59
2018-07-21T03:41:26.745Z,55.92
2018-07-21T03:42:26.885Z,56.01
2018-07-21T03:43:27.026Z,56.40
2018-07-21T03:44:27.178Z,56.49
2018-07-21T03:45:27.316Z,56.21
2018-07-21T03:46:27.451Z,56.59
2018-07-21T03:47:27.592Z,56.98
2018-07-21T03:48:27.736Z,56.69
2018-07-21T03:49:27.878Z,56.79
2018-07-21T03:50:28.019Z,56.69
2018-07-21T03:51:28.157Z,56.30
2018-07-21T03:52:28.300Z,56.59
2018-07-21T03:53:28.437Z,56.69
2018-07-21T03:54:28.583Z,56.98
2018-07-21T03:55:28.715Z,57.17
2018-07-21T03:56:28.871Z,57.17
2018-07-21T03:57:29.003Z,57.07
2018-07-21T03:58:29.144Z,57.27
2018-07-21T03:59:29.282Z,57.27
2018-07-21T04:00:29.464Z,57.17
2018-07-21T04:01:29.565Z,57.27
2018-07-21T04:02:29.703Z,57.27
2018-07-21T04:03:29.839Z,57.65
2018-07-21T04:04:29.979Z,57.56
2018-07-21T04:05:30.138Z,57.85
2018-07-21T04:06:30.269Z,58.14
2018-07-21T04:07:30.405Z,58.59
2018-07-21T04:08:30.546Z,58.59
2018-07-21T04:09:30.739Z,58.72
2018-07-21T04:10:30.875Z,58.23
2018-07-21T04:11:31.045Z,58.42
2018-07-21T04:12:31.269Z,58.33
2018-07-21T04:13:31.283Z,58.42
2018-07-21T04:14:31.421Z,58.62
2018-07-21T04:15:31.580Z,58.42
2018-07-21T04:16:31.760Z,58.33
2018-07-21T04:17:31.877Z,58.23
2018-07-21T04:18:32.012Z,58.42
2018-07-21T04:19:32.151Z,58.42
2018-07-21T04:20:32.316Z,58.52
2018-07-21T04:21:32.453Z,58.23
2018-07-21T04:22:32.592Z,57.85
2018-07-21T04:23:32.759Z,58.42
2018-07-21T04:24:32.900Z,58.33
2018-07-21T04:25:33.042Z,58.62
2018-07-21T04:26:33.195Z,58.14
2018-07-21T04:27:33.329Z,58.72
2018-07-21T04:28:33.471Z,58.23
2018-07-21T04:29:33.632Z,58.42
2018-07-21T04:30:33.758Z,58.23
2018-07-21T04:31:33.902Z,58.42
2018-07-21T04:32:34.058Z,58.23
2018-07-21T04:33:34.274Z,57.94
2018-07-21T04:34:34.297Z,57.65
2018-07-21T04:35:34.449Z,57.75
2018-07-21T04:36:34.593Z,58.04
2018-07-21T04:37:34.732Z,57.56
2018-07-21T04:38:34.891Z,57.75
2018-07-21T04:39:35.022Z,58.23
2018-07-21T04:40:35.159Z,57.87
2018-07-21T04:41:35.324Z,57.87
2018-07-21T04:42:35.562Z,57.78
2018-07-21T04:43:35.576Z,58.52
2018-07-21T04:44:35.739Z,58.62
2018-07-21T04:45:35.886Z,58.52
2018-07-21T04:46:36.029Z,59.00
2018-07-21T04:47:36.247Z,58.72
2018-07-21T04:48:36.252Z,58.59
2018-07-21T04:49:36.392Z,58.88
2018-07-21T04:50:36.547Z,59.45
2018-07-21T04:51:36.684Z,59.55
2018-07-21T04:52:36.821Z,59.94
2018-07-21T04:53:36.964Z,60.13
2018-07-21T04:54:37.186Z,59.94
2018-07-21T04:55:37.195Z,60.03
2018-07-21T04:56:37.339Z,60.03
2018-07-21T04:57:37.472Z,59.75
2018-07-21T04:58:37.619Z,60.13
2018-07-21T04:59:37.772Z,60.23
2018-07-21T05:00:37.918Z,59.65
2018-07-21T05:01:38.051Z,60.42
2018-07-21T05:02:38.200Z,61.48
2018-07-21T05:03:38.344Z,61.19
2018-07-21T05:04:38.484Z,61.58
2018-07-21T05:05:38.631Z,61.83
2018-07-21T05:06:38.767Z,61.45
2018-07-21T05:07:38.905Z,62.38
2018-07-21T05:08:39.051Z,62.96
2018-07-21T05:09:39.192Z,62.87
2018-07-21T05:10:39.334Z,62.29
2018-07-21T05:11:39.475Z,62.12
2018-07-21T05:12:39.618Z,61.74
2018-07-21T05:13:39.759Z,61.35
2018-07-21T05:14:39.902Z,61.83
2018-07-21T05:15:40.042Z,60.30
2018-07-21T05:16:40.188Z,60.68
2018-07-21T05:17:40.333Z,60.68
2018-07-21T05:18:40.482Z,59.91
2018-07-21T05:19:40.616Z,59.91
2018-07-21T05:20:40.762Z,59.55
2018-07-21T05:21:40.901Z,59.36
2018-07-21T05:22:41.037Z,58.69
2018-07-21T05:23:41.177Z,59.45
2018-07-21T05:24:41.321Z,59.33
2018-07-21T05:25:41.465Z,59.81
2018-07-21T05:26:41.606Z,59.55
2018-07-21T05:27:41.746Z,59.07
2018-07-21T05:28:41.897Z,59.27
2018-07-21T05:29:42.035Z,59.07
2018-07-21T05:30:42.177Z,58.88
2018-07-21T05:31:42.324Z,59.27
2018-07-21T05:32:42.467Z,59.17
2018-07-21T05:33:42.605Z,58.78
2018-07-21T05:34:42.745Z,58.11
2018-07-21T05:35:42.882Z,58.30
2018-07-21T05:36:43.032Z,57.82
2018-07-21T05:37:43.165Z,59.17
2018-07-21T05:38:43.306Z,60.61
2018-07-21T05:39:43.442Z,61.00
2018-07-21T05:40:43.577Z,60.61
2018-07-21T05:41:43.717Z,59.55
2018-07-21T05:42:43.854Z,59.39
2018-07-21T05:43:44.004Z,58.23
2018-07-21T05:44:44.146Z,57.94
2018-07-21T05:45:44.287Z,58.33
2018-07-21T05:46:44.426Z,58.23
2018-07-21T05:47:44.567Z,58.62
2018-07-21T05:48:44.707Z,58.04
2018-07-21T05:49:44.851Z,57.65
2018-07-21T05:50:44.990Z,57.68
2018-07-21T05:51:45.131Z,57.87
2018-07-21T05:52:45.278Z,58.84
2018-07-21T05:53:45.410Z,59.32
2018-07-21T05:54:45.556Z,58.91
2018-07-21T05:55:45.697Z,59.58
2018-07-21T05:56:45.845Z,59.58
2018-07-21T05:57:45.991Z,60.83
2018-07-21T05:58:46.156Z,60.83
2018-07-21T05:59:46.286Z,61.00
2018-07-21T06:00:46.432Z,60.80
2018-07-21T06:01:46.594Z,59.94
2018-07-21T06:02:46.804Z,60.23
2018-07-21T06:03:46.886Z,59.27
2018-07-21T06:04:47.029Z,59.07
2018-07-21T06:05:47.186Z,59.55
2018-07-21T06:06:47.328Z,58.88
2018-07-21T06:07:47.498Z,59.36
2018-07-21T06:08:47.632Z,59.55
2018-07-21T06:09:47.770Z,59.36
2018-07-21T06:10:47.917Z,58.69
2018-07-21T06:11:48.055Z,58.59
2018-07-21T06:12:48.193Z,58.78
2018-07-21T06:13:48.356Z,58.49
2018-07-21T06:14:48.491Z,58.88
2018-07-21T06:15:48.633Z,58.20
2018-07-21T06:16:48.791Z,58.30
2018-07-21T06:17:48.930Z,57.94
2018-07-21T06:18:49.068Z,57.65
2018-07-21T06:19:49.210Z,56.69
2018-07-21T06:20:49.349Z,56.79
2018-07-21T06:21:49.492Z,56.21
2018-07-21T06:22:49.644Z,56.59
2018-07-21T06:23:49.799Z,56.59
2018-07-21T06:24:49.923Z,56.59
2018-07-21T06:25:50.071Z,57.07
2018-07-21T06:26:50.284Z,56.72
2018-07-21T06:27:50.303Z,56.62
2018-07-21T06:28:50.443Z,55.94
2018-07-21T06:29:50.572Z,56.52
2018-07-21T06:30:50.717Z,56.24
2018-07-21T06:31:50.871Z,55.88
2018-07-21T06:32:51.018Z,56.24
2018-07-21T06:33:51.163Z,55.18
2018-07-21T06:34:51.305Z,55.08
2018-07-21T06:35:51.440Z,54.88
2018-07-21T06:36:51.591Z,55.36
2018-07-21T06:37:51.756Z,54.72
2018-07-21T06:38:51.880Z,54.72
2018-07-21T06:39:52.028Z,54.69
2018-07-21T06:40:52.183Z,54.14
2018-07-21T06:41:52.321Z,53.75
2018-07-21T06:42:52.468Z,53.75
2018-07-21T06:43:52.656Z,53.56
2018-07-21T06:44:52.759Z,53.47
2018-07-21T06:45:52.900Z,53.56
2018-07-21T06:46:53.041Z,53.69
2018-07-21T06:47:53.179Z,53.49
2018-07-21T06:48:53.350Z,53.59
2018-07-21T06:49:53.517Z,53.30
2018-07-21T06:50:53.644Z,53.30
2018-07-21T06:51:53.795Z,53.49
2018-07-21T06:52:53.949Z,53.30
2018-07-21T06:53:54.086Z,52.72
2018-07-21T06:54:54.300Z,53.03
2018-07-21T06:55:54.333Z,52.84
2018-07-21T06:56:54.465Z,52.53
2018-07-21T06:57:54.607Z,52.14
2018-07-21T06:58:54.746Z,52.04
2018-07-21T06:59:54.907Z,52.04
2018-07-21T07:00:55.053Z,52.72
2018-07-21T07:01:55.190Z,52.62
2018-07-21T07:02:55.334Z,52.33
2018-07-21T07:03:55.484Z,52.72
2018-07-21T07:04:55.624Z,52.94
2018-07-21T07:05:55.769Z,52.26
2018-07-21T07:06:55.908Z,52.17
2018-07-21T07:07:56.051Z,52.07
2018-07-21T07:08:56.196Z,52.17
2018-07-21T07:09:56.337Z,51.87
2018-07-21T07:10:56.475Z,51.78
2018-07-21T07:11:56.617Z,51.78
2018-07-21T07:12:56.760Z,51.68
2018-07-21T07:13:56.911Z,52.07
2018-07-21T07:14:57.055Z,51.78
2018-07-21T07:15:57.194Z,51.81
2018-07-21T07:16:57.339Z,52.00
2018-07-21T07:17:57.481Z,52.09
2018-07-21T07:18:57.627Z,51.23
2018-07-21T07:19:57.767Z,50.74
2018-07-21T07:20:57.913Z,51.32
2018-07-21T07:21:58.052Z,51.10
2018-07-21T07:22:58.196Z,51.03
2018-07-21T07:23:58.343Z,52.00
2018-07-21T07:24:58.487Z,51.03
2018-07-21T07:25:58.625Z,51.13
2018-07-21T07:26:58.761Z,50.65
2018-07-21T07:27:58.901Z,50.65
2018-07-21T07:28:59.053Z,50.55
2018-07-21T07:29:59.192Z,50.16
2018-07-21T07:30:59.336Z,50.16
2018-07-21T07:31:59.468Z,49.68
2018-07-21T07:32:59.630Z,50.26
2018-07-21T07:33:59.770Z,50.26
2018-07-21T07:34:59.915Z,50.38
2018-07-21T07:36:00.055Z,50.38
2018-07-21T07:37:00.189Z,49.70
2018-07-21T07:38:00.337Z,49.77
2018-07-21T07:39:00.484Z,49.51
2018-07-21T07:40:00.629Z,49.41
2018-07-21T07:41:00.770Z,49.51
2018-07-21T07:42:00.925Z,49.22
2018-07-21T07:43:01.064Z,49.51
2018-07-21T07:44:01.205Z,49.70
2018-07-21T07:45:01.344Z,50.09
2018-07-21T07:46:01.486Z,50.28
2018-07-21T07:47:01.625Z,50.48
2018-07-21T07:48:01.769Z,50.38
2018-07-21T07:49:01.948Z,49.60
2018-07-21T07:50:02.081Z,49.51
2018-07-21T07:51:02.226Z,49.15
2018-07-21T07:52:02.366Z,49.12
2018-07-21T07:53:02.508Z,49.15
2018-07-21T07:54:02.656Z,49.54
2018-07-21T07:55:02.814Z,49.73
2018-07-21T07:56:02.950Z,49.44
2018-07-21T07:57:03.090Z,49.82
2018-07-21T07:58:03.258Z,49.44
2018-07-21T07:59:03.368Z,49.24
2018-07-21T08:00:03.518Z,49.34
2018-07-21T08:01:03.676Z,49.34
2018-07-21T08:02:03.815Z,49.24
2018-07-21T08:03:03.963Z,49.24
2018-07-21T08:04:04.110Z,49.15
2018-07-21T08:05:04.244Z,48.86
2018-07-21T08:06:04.381Z,49.34
2018-07-21T08:07:04.531Z,49.63
2018-07-21T08:08:04.673Z,49.34
2018-07-21T08:09:04.818Z,48.95
2018-07-21T08:10:04.973Z,49.05
2018-07-21T08:11:05.103Z,49.05
2018-07-21T08:12:05.243Z,49.05
2018-07-21T08:13:05.378Z,49.54
2018-07-21T08:14:05.581Z,48.95
2018-07-21T08:15:05.659Z,48.95
2018-07-21T08:16:05.822Z,48.76
2018-07-21T08:17:05.963Z,48.95
2018-07-21T08:18:06.180Z,49.24
2018-07-21T08:19:06.216Z,49.24
2018-07-21T08:20:06.338Z,48.86
2018-07-21T08:21:06.484Z,48.86
2018-07-21T08:22:06.621Z,49.15
2018-07-21T08:23:06.758Z,48.27
2018-07-21T08:24:06.899Z,47.89
2018-07-21T08:25:07.057Z,47.81
2018-07-21T08:26:07.199Z,47.81
2018-07-21T08:27:07.361Z,47.62
2018-07-21T08:28:07.467Z,48.37
2018-07-21T08:29:07.640Z,49.07
2018-07-21T08:30:07.749Z,49.07
2018-07-21T08:31:07.890Z,48.97
2018-07-21T08:32:08.031Z,48.11
2018-07-21T08:33:08.177Z,48.59
2018-07-21T08:34:08.318Z,48.01
2018-07-21T08:35:08.463Z,48.01
2018-07-21T08:36:08.606Z,47.52
2018-07-21T08:37:08.740Z,47.41
2018-07-21T08:38:08.884Z,47.52
2018-07-21T08:39:09.030Z,47.24
2018-07-21T08:40:09.180Z,48.01
2018-07-21T08:41:09.319Z,47.81
2018-07-21T08:42:09.464Z,49.17
2018-07-21T08:43:09.606Z,48.88
2018-07-21T08:44:09.750Z,48.97
2018-07-21T08:45:09.905Z,48.88
2018-07-21T08:46:10.067Z,49.17
2018-07-21T08:47:10.230Z,48.97
2018-07-21T08:48:10.356Z,48.79
2018-07-21T08:49:10.523Z,48.88
2018-07-21T08:50:10.676Z,48.30
2018-07-21T08:51:10.811Z,48.11
2018-07-21T08:52:10.958Z,48.11
2018-07-21T08:53:11.108Z,47.81
2018-07-21T08:54:11.256Z,48.13
2018-07-21T08:55:11.407Z,48.03
2018-07-21T08:56:11.549Z,48.61
2018-07-21T08:57:11.701Z,49.19
2018-07-21T08:58:11.849Z,49.19
2018-07-21T08:59:11.988Z,49.00
2018-07-21T09:00:12.142Z,48.81
2018-07-21T09:01:12.286Z,48.13
2018-07-21T09:02:12.436Z,48.13
2018-07-21T09:03:12.578Z,48.32
2018-07-21T09:04:12.717Z,47.94
2018-07-21T09:05:12.858Z,47.94
2018-07-21T09:06:13.011Z,47.84
2018-07-21T09:07:13.152Z,48.13
2018-07-21T09:08:13.299Z,47.94
2018-07-21T09:09:13.511Z,47.06
2018-07-21T09:10:13.609Z,47.74
2018-07-21T09:11:13.869Z,47.26
2018-07-21T09:12:13.918Z,47.94
2018-07-21T09:13:14.120Z,47.84
2018-07-21T09:14:14.276Z,47.64
2018-07-21T09:15:14.418Z,47.84
2018-07-21T09:16:14.556Z,48.03
2018-07-21T09:17:14.728Z,48.03
2018-07-21T09:18:14.857Z,48.32
2018-07-21T09:19:15.001Z,47.55
2018-07-21T09:20:15.150Z,48.32
2018-07-21T09:21:15.290Z,47.36
2018-07-21T09:22:15.430Z,48.32
2018-07-21T09:23:15.615Z,48.03
2018-07-21T09:24:15.728Z,49.29
2018-07-21T09:25:15.877Z,49.29
2018-07-21T09:26:16.044Z,48.81
2018-07-21T09:27:16.170Z,48.90
2018-07-21T09:28:16.396Z,49.29
2018-07-21T09:29:16.453Z,49.58
2018-07-21T09:30:16.604Z,49.39
2018-07-21T09:31:16.737Z,49.58
2018-07-21T09:32:16.900Z,49.58
2018-07-21T09:33:17.036Z,50.26
2018-07-21T09:34:17.292Z,49.85
2018-07-21T09:35:17.323Z,50.35
2018-07-21T09:36:17.483Z,49.85
2018-07-21T09:37:17.632Z,49.37
2018-07-21T09:38:17.779Z,49.37
2018-07-21T09:39:17.918Z,50.43
2018-07-21T09:40:18.134Z,50.04
2018-07-21T09:41:18.208Z,49.75
2018-07-21T09:42:18.353Z,50.33
2018-07-21T09:43:18.491Z,50.43
2018-07-21T09:44:18.635Z,49.95
2018-07-21T09:45:18.779Z,50.43
2018-07-21T09:46:18.922Z,49.77
2018-07-21T09:47:19.066Z,50.26
2018-07-21T09:48:19.208Z,50.72
2018-07-21T09:49:19.350Z,49.46
2018-07-21T09:50:19.496Z,50.43
2018-07-21T09:51:19.636Z,49.65
2018-07-21T09:52:19.781Z,50.33
2018-07-21T09:53:19.921Z,50.33
2018-07-21T09:54:20.064Z,50.43
2018-07-21T09:55:20.209Z,49.37
2018-07-21T09:56:20.354Z,49.46
2018-07-21T09:57:20.490Z,49.07
2018-07-21T09:58:20.637Z,49.37
2018-07-21T09:59:20.781Z,50.43
2018-07-21T10:00:20.924Z,50.24
2018-07-21T10:01:21.065Z,50.33
2018-07-21T10:02:21.213Z,50.26
2018-07-21T10:03:21.352Z,49.39
2018-07-21T10:04:21.508Z,49.49
2018-07-21T10:05:21.651Z,49.19
2018-07-21T10:06:21.795Z,50.33
2018-07-21T10:07:21.938Z,50.33
2018-07-21T10:08:22.088Z,50.33
2018-07-21T10:09:22.232Z,50.43
2018-07-21T10:10:22.382Z,50.33
2018-07-21T10:11:22.520Z,50.43
2018-07-21T10:12:22.664Z,50.33
2018-07-21T10:13:22.807Z,50.52
2018-07-21T10:14:22.950Z,49.27
2018-07-21T10:15:23.147Z,49.17
2018-07-21T10:16:23.243Z,49.56
2018-07-21T10:17:23.382Z,50.04
2018-07-21T10:18:23.526Z,49.46
2018-07-21T10:19:23.673Z,49.46
2018-07-21T10:20:23.819Z,49.75
2018-07-21T10:21:23.959Z,49.17
2018-07-21T10:22:24.104Z,49.37
2018-07-21T10:23:24.257Z,49.19
2018-07-21T10:24:24.398Z,49.56
2018-07-21T10:25:24.545Z,49.29
2018-07-21T10:26:24.704Z,49.29
2018-07-21T10:27:24.845Z,49.00
2018-07-21T10:28:25.029Z,48.90
2018-07-21T10:29:25.139Z,48.97
2018-07-21T10:30:25.276Z,48.90
2018-07-21T10:31:25.432Z,48.88
2018-07-21T10:32:25.570Z,49.29
2018-07-21T10:33:25.788Z,49.65
2018-07-21T10:34:25.878Z,49.85
2018-07-21T10:35:26.016Z,49.17
2018-07-21T10:36:26.162Z,48.88
2018-07-21T10:37:26.316Z,48.88
2018-07-21T10:38:26.458Z,49.75
2018-07-21T10:39:26.599Z,49.56
2018-07-21T10:40:26.795Z,49.37
2018-07-21T10:41:26.894Z,49.65
2018-07-21T10:42:27.042Z,50.24
2018-07-21T10:43:27.200Z,50.43
2018-07-21T10:44:27.352Z,50.24
2018-07-21T10:45:27.479Z,50.62
2018-07-21T10:46:27.641Z,50.33
2018-07-21T10:47:27.782Z,50.43
2018-07-21T10:48:27.996Z,50.82
2018-07-21T10:49:28.033Z,50.82
2018-07-21T10:50:28.200Z,50.62
2018-07-21T10:51:28.332Z,50.72
2018-07-21T10:52:28.487Z,50.52
2018-07-21T10:53:28.611Z,50.82
2018-07-21T10:54:28.750Z,50.82
2018-07-21T10:55:28.940Z,51.23
2018-07-21T10:56:29.076Z,51.30
2018-07-21T10:57:29.221Z,50.72
2018-07-21T10:58:29.382Z,50.62
2018-07-21T10:59:29.514Z,50.62
2018-07-21T11:00:29.659Z,50.72
2018-07-21T11:01:29.815Z,51.20
2018-07-21T11:02:29.966Z,51.10
2018-07-21T11:03:30.109Z,50.84
2018-07-21T11:04:30.271Z,51.04
2018-07-21T11:05:30.410Z,50.84
2018-07-21T11:06:30.552Z,51.13
2018-07-21T11:07:30.706Z,50.65
2018-07-21T11:08:30.851Z,50.55
2018-07-21T11:09:30.994Z,50.94
2018-07-21T11:10:31.139Z,51.32
2018-07-21T11:11:31.299Z,50.74
2018-07-21T11:12:31.417Z,50.84
2018-07-21T11:13:31.571Z,51.13
2018-07-21T11:14:31.733Z,50.74
2018-07-21T11:15:31.940Z,50.45
2018-07-21T11:16:32.022Z,50.65
2018-07-21T11:17:32.221Z,50.74
2018-07-21T11:18:33.160Z,50.84
2018-07-21T11:19:32.493Z,50.45
2018-07-21T11:20:32.633Z,50.65
2018-07-21T11:21:32.777Z,50.84
2018-07-21T11:22:32.927Z,51.13
2018-07-21T11:23:33.068Z,51.23
2018-07-21T11:24:33.212Z,51.81
2018-07-21T11:25:33.356Z,51.81
2018-07-21T11:26:33.501Z,51.52
2018-07-21T11:27:33.645Z,51.90
2018-07-21T11:28:33.788Z,51.90
2018-07-21T11:29:33.942Z,51.13
2018-07-21T11:30:34.081Z,51.42
2018-07-21T11:31:34.229Z,51.72
2018-07-21T11:32:34.370Z,50.74
2018-07-21T11:33:34.516Z,51.04
2018-07-21T11:34:34.660Z,51.42
2018-07-21T11:35:34.878Z,51.23
2018-07-21T11:36:34.985Z,50.65
2018-07-21T11:37:35.082Z,49.97
2018-07-21T11:38:35.227Z,50.07
2018-07-21T11:39:35.369Z,50.55
2018-07-21T11:40:35.508Z,49.97
2018-07-21T11:41:35.678Z,50.74
2018-07-21T11:42:35.830Z,50.55
2018-07-21T11:43:35.971Z,50.77
2018-07-21T11:44:36.231Z,50.87
2018-07-21T11:45:36.329Z,50.48
2018-07-21T11:46:36.481Z,50.67
2018-07-21T11:47:36.625Z,50.67
2018-07-21T11:48:36.768Z,50.38
2018-07-21T11:49:36.915Z,50.48
2018-07-21T11:50:37.292Z,49.80
2018-07-21T11:51:37.210Z,49.61
2018-07-21T11:52:37.350Z,49.41
2018-07-21T11:53:37.505Z,49.41
2018-07-21T11:54:37.657Z,49.32
2018-07-21T11:55:37.789Z,49.44
2018-07-21T11:56:37.963Z,49.15
2018-07-21T11:57:38.204Z,49.15
2018-07-21T11:58:38.233Z,48.95
2018-07-21T11:59:38.401Z,49.34
2018-07-21T12:00:38.536Z,49.63
2018-07-21T12:01:38.680Z,49.15
2018-07-21T12:02:38.847Z,48.66
2018-07-21T12:03:38.979Z,49.24
2018-07-21T12:04:39.119Z,49.15
2018-07-21T12:05:39.342Z,49.24
2018-07-21T12:06:39.400Z,48.47
2018-07-21T12:07:39.606Z,49.24
2018-07-21T12:08:39.670Z,47.98
2018-07-21T12:09:39.821Z,48.27
2018-07-21T12:10:39.968Z,48.85
2018-07-21T12:11:40.672Z,48.76
2018-07-21T12:12:40.228Z,48.95
2018-07-21T12:13:40.423Z,49.15
2018-07-21T12:14:40.505Z,49.34
2018-07-21T12:15:40.647Z,48.85
2018-07-21T12:16:40.787Z,49.34
2018-07-21T12:17:40.933Z,48.85
2018-07-21T12:18:41.183Z,48.47
2018-07-21T12:19:41.216Z,48.20
2018-07-21T12:20:41.356Z,48.08
2018-07-21T12:21:41.510Z,48.27
2018-07-21T12:22:41.648Z,48.18
2018-07-21T12:23:41.790Z,47.40
2018-07-21T12:24:41.940Z,48.47
2018-07-21T12:25:42.075Z,48.18
2018-07-21T12:26:42.217Z,47.69
2018-07-21T12:27:42.362Z,47.40
2018-07-21T12:28:42.502Z,47.20
2018-07-21T12:29:42.648Z,47.30
2018-07-21T12:30:42.802Z,47.50
2018-07-21T12:31:42.946Z,47.11
2018-07-21T12:32:43.090Z,48.20
2018-07-21T12:33:43.285Z,47.91
2018-07-21T12:34:43.381Z,47.23
2018-07-21T12:35:43.523Z,47.33
2018-07-21T12:36:43.663Z,47.03
2018-07-21T12:37:43.809Z,47.13
2018-07-21T12:38:43.954Z,47.03
2018-07-21T12:39:44.114Z,47.33
2018-07-21T12:40:44.267Z,46.75
2018-07-21T12:41:44.404Z,47.33
2018-07-21T12:42:44.570Z,47.52
2018-07-21T12:43:44.711Z,46.65
2018-07-21T12:44:44.915Z,46.84
2018-07-21T12:45:45.019Z,46.84
2018-07-21T12:46:45.159Z,46.84
2018-07-21T12:47:45.321Z,46.84
2018-07-21T12:48:45.469Z,47.33
2018-07-21T12:49:45.604Z,47.23
2018-07-21T12:50:45.747Z,47.42
2018-07-21T12:51:45.898Z,46.65
2018-07-21T12:52:46.042Z,46.45
2018-07-21T12:53:46.194Z,46.94
2018-07-21T12:54:46.346Z,47.03
2018-07-21T12:55:46.483Z,47.23